Time;durP1;ratioP1;P1;durP2;ratioP2;P2;SDS_P1;SDS_P2;PMS_P1;PMS_P2;Temp;Humidity;BMP_temperature;BMP_pressure;BME280_temperature;BME280_humidity;BME280_pressure;Samples;Min_cycle;Max_cycle;Signal;HPM_P1;HPM_P2
2023/03/15 00:00:01;;;;;;;4.50;3.20;;;;;;;3.54;100.00;98451.97;10523746;28;20045;-76
2023/03/15 00:05:07;;;;;;;5.38;3.47;;;;;;;3.56;100.00;98444.34;10518798;28;20307;-78
2023/03/15 00:10:10;;;;;;;4.68;3.55;;;;;;;3.56;100.00;98441.63;10523986;28;20060;-77
2023/03/15 00:15:14;;;;;;;6.70;4.18;;;;;;;3.57;100.00;98435.09;10523233;28;20040;-78
2023/03/15 00:20:20;;;;;;;4.70;3.63;;;;;;;3.57;100.00;98429.69;10523648;28;20032;-78
2023/03/15 00:25:22;;;;;;;6.43;4.40;;;;;;;3.60;100.00;98440.75;10528918;28;20041;-78
2023/03/15 00:30:28;;;;;;;6.65;4.10;;;;;;;3.61;100.00;98450.50;10497428;28;20048;-78
2023/03/15 00:35:37;;;;;;;7.07;4.20;;;;;;;3.65;100.00;98453.47;10494006;28;20051;-78
2023/03/15 00:40:40;;;;;;;6.75;4.20;;;;;;;3.67;100.00;98462.13;10522434;28;20051;-79
2023/03/15 00:45:44;;;;;;;6.13;3.55;;;;;;;3.71;100.00;98467.78;10501537;28;20052;-78
2023/03/15 00:50:46;;;;;;;5.53;4.13;;;;;;;3.70;100.00;98466.16;10520215;28;20045;-78
2023/03/15 00:55:49;;;;;;;4.75;3.35;;;;;;;3.70;100.00;98456.13;10525781;28;20041;-78
2023/03/15 01:00:51;;;;;;;6.60;4.35;;;;;;;3.72;100.00;98450.41;10524172;28;20040;-77
2023/03/15 01:05:53;;;;;;;6.80;4.45;;;;;;;3.67;100.00;98435.00;10524447;28;20040;-78
2023/03/15 01:11:00;;;;;;;7.78;4.30;;;;;;;3.66;100.00;98448.84;10519029;28;20044;-78
2023/03/15 01:16:03;;;;;;;6.50;4.47;;;;;;;3.66;100.00;98448.84;10498436;28;20049;-78
2023/03/15 01:21:10;;;;;;;5.88;3.72;;;;;;;3.65;100.00;98453.47;10497507;28;20044;-78
2023/03/15 01:26:14;;;;;;;7.50;4.93;;;;;;;3.64;100.00;98462.69;10524399;28;20043;-78
2023/03/15 01:31:23;;;;;;;6.95;4.20;;;;;;;3.66;100.00;98470.56;10510783;28;20051;-77
2023/03/15 01:36:25;;;;;;;7.78;4.65;;;;;;;3.65;100.00;98475.16;10497477;28;20063;-79
2023/03/15 01:41:28;;;;;;;7.40;4.82;;;;;;;3.68;100.00;98457.50;10521149;28;20044;-77
2023/03/15 01:46:33;;;;;;;6.45;4.20;;;;;;;3.72;100.00;98459.34;10503441;28;20060;-78
2023/03/15 01:51:56;;;;;;;8.10;4.55;;;;;;;3.78;100.00;98474.44;10500782;28;20048;-77
2023/03/15 01:57:08;;;;;;;8.35;4.70;;;;;;;3.80;100.00;98464.13;10507992;28;20044;-79
2023/03/15 02:02:13;;;;;;;7.20;3.75;;;;;;;3.82;100.00;98477.41;10491804;28;20048;-78
2023/03/15 02:07:16;;;;;;;10.65;4.82;;;;;;;3.88;100.00;98481.66;10503042;28;20037;-78
2023/03/15 02:12:19;;;;;;;8.23;5.00;;;;;;;3.89;100.00;98480.56;10523175;28;20059;-78
2023/03/15 02:17:30;;;;;;;7.85;4.38;;;;;;;3.91;100.00;98481.88;10505190;28;20048;-77
2023/03/15 02:22:49;;;;;;;8.07;4.30;;;;;;;3.95;100.00;98482.09;10485495;28;20045;-78
2023/03/15 02:27:52;;;;;;;8.95;5.07;;;;;;;3.94;100.00;98475.88;10500283;28;20048;-76
2023/03/15 02:32:55;;;;;;;7.47;4.40;;;;;;;3.96;100.00;98472.88;10517335;28;20055;-78
2023/03/15 02:38:01;;;;;;;6.07;3.72;;;;;;;3.96;100.00;98480.19;10503163;28;20048;-77
2023/03/15 02:43:06;;;;;;;7.55;4.68;;;;;;;3.99;100.00;98485.84;10490631;28;20135;-78
2023/03/15 02:48:10;;;;;;;5.35;2.30;;;;;;;4.03;100.00;98489.63;10505499;28;20052;-78
2023/03/15 02:53:12;;;;;;;9.05;5.35;;;;;;;4.04;100.00;98488.53;10482312;28;20036;-78
2023/03/15 02:58:46;;;;;;;10.32;4.60;;;;;;;4.07;100.00;98487.13;10521251;28;20114;-79
2023/03/15 03:03:49;;;;;;;9.45;4.78;;;;;;;4.07;100.00;98497.97;10504820;28;20041;-78
2023/03/15 03:08:55;;;;;;;8.15;5.10;;;;;;;4.11;100.00;98505.25;10496887;28;20063;-78
2023/03/15 03:13:57;;;;;;;10.63;5.20;;;;;;;4.12;100.00;98519.63;10504458;28;20534;-78
2023/03/15 03:19:00;;;;;;;7.75;4.75;;;;;;;4.13;100.00;98527.47;10501927;28;20047;-77
2023/03/15 03:24:08;;;;;;;12.20;5.53;;;;;;;4.14;100.00;98526.38;10496128;28;20048;-76
2023/03/15 03:29:15;;;;;;;7.75;4.65;;;;;;;4.15;100.00;98527.19;10520968;28;20488;-76
2023/03/15 03:34:23;;;;;;;11.18;6.00;;;;;;;4.18;100.00;98518.47;10530622;28;20048;-77
2023/03/15 03:39:31;;;;;;;11.65;5.10;;;;;;;4.19;100.00;98528.22;10491673;28;20441;-77
2023/03/15 03:44:36;;;;;;;10.75;5.35;;;;;;;4.20;100.00;98538.81;10503225;28;20048;-77
2023/03/15 03:49:39;;;;;;;8.32;5.00;;;;;;;4.21;100.00;98542.31;10505909;28;20461;-77
2023/03/15 03:54:45;;;;;;;8.73;4.38;;;;;;;4.22;100.00;98542.03;10491619;28;20162;-77
2023/03/15 03:59:48;;;;;;;7.93;5.00;;;;;;;4.24;100.00;98580.56;10494296;28;20055;-78
2023/03/15 04:04:51;;;;;;;9.80;6.47;;;;;;;4.23;100.00;98568.06;10528585;28;20045;-77
2023/03/15 04:09:56;;;;;;;8.18;4.05;;;;;;;4.22;100.00;98587.38;10494957;28;20399;-78
2023/03/15 04:14:58;;;;;;;10.27;4.85;;;;;;;4.22;100.00;98592.78;10515634;28;20040;-75
2023/03/15 04:20:08;;;;;;;9.80;5.50;;;;;;;4.18;100.00;98591.78;10509630;28;20512;-76
2023/03/15 04:25:13;;;;;;;8.77;4.90;;;;;;;4.20;100.00;98595.00;10500253;28;20045;-76
2023/03/15 04:30:36;;;;;;;5.15;3.60;;;;;;;4.21;100.00;98605.56;10492803;28;20052;-78
2023/03/15 04:36:01;;;;;;;7.05;4.13;;;;;;;4.21;100.00;98596.63;10521681;28;20055;-77
2023/03/15 04:41:09;;;;;;;7.55;4.10;;;;;;;4.23;100.00;98606.09;10483136;28;20063;-76
2023/03/15 04:46:38;;;;;;;5.43;3.30;;;;;;;4.21;100.00;98613.72;10511681;28;20047;-76
2023/03/15 04:52:04;;;;;;;8.15;4.30;;;;;;;4.20;100.00;98633.81;10520832;28;20064;-77
2023/03/15 04:57:25;;;;;;;6.60;3.85;;;;;;;4.17;100.00;98639.00;10494495;28;20036;-76
2023/03/15 05:02:56;;;;;;;4.22;2.55;;;;;;;4.16;100.00;98646.31;10509482;28;20137;-75
2023/03/15 05:08:31;;;;;;;5.75;3.00;;;;;;;4.17;100.00;98636.31;10465870;28;20060;-76
2023/03/15 05:13:50;;;;;;;7.65;4.38;;;;;;;4.20;100.00;98633.00;10454424;28;20052;-77
2023/03/15 05:19:11;;;;;;;5.28;3.13;;;;;;;4.20;100.00;98638.44;10520488;28;20047;-77
2023/03/15 05:24:33;;;;;;;6.78;4.25;;;;;;;4.23;100.00;98646.00;10475777;28;20049;-76
2023/03/15 05:29:52;;;;;;;6.20;3.90;;;;;;;4.23;100.00;98652.22;10470169;28;20051;-76
2023/03/15 05:35:18;;;;;;;6.85;4.07;;;;;;;4.25;100.00;98641.09;10493315;28;20080;-75
2023/03/15 05:40:38;;;;;;;8.65;4.13;;;;;;;4.29;100.00;98631.25;10469140;28;20051;-77
2023/03/15 05:45:49;;;;;;;7.80;4.13;;;;;;;4.37;100.00;98648.84;10493587;28;20037;-76
2023/03/15 05:51:04;;;;;;;9.20;4.45;;;;;;;4.41;100.00;98672.41;10495615;28;20044;-76
2023/03/15 05:56:41;;;;;;;5.93;3.23;;;;;;;4.46;100.00;98675.03;10482331;28;20044;-77
2023/03/15 06:01:54;;;;;;;6.70;4.10;;;;;;;4.47;100.00;98684.81;10477632;28;20048;-76
2023/03/15 06:07:03;;;;;;;6.00;4.13;;;;;;;4.52;100.00;98684.78;10508763;28;20041;-76
2023/03/15 06:12:07;;;;;;;3.38;1.98;;;;;;;4.51;100.00;98693.19;10511262;28;20052;-77
2023/03/15 06:17:11;;;;;;;5.55;3.55;;;;;;;4.56;100.00;98701.28;10509245;28;20409;-77
2023/03/15 06:22:14;;;;;;;11.05;3.60;;;;;;;4.54;100.00;98693.44;10510718;28;20048;-76
2023/03/15 06:27:23;;;;;;;8.88;4.80;;;;;;;4.59;100.00;98691.75;10510238;28;20053;-76
2023/03/15 06:32:29;;;;;;;6.47;4.25;;;;;;;4.60;100.00;98710.47;10524464;28;20058;-76
2023/03/15 06:37:34;;;;;;;4.75;3.05;;;;;;;4.57;100.00;98708.34;10510444;28;20040;-77
2023/03/15 06:42:38;;;;;;;6.30;3.65;;;;;;;4.58;100.00;98698.28;10505437;28;20029;-77
2023/03/15 06:47:41;;;;;;;6.35;3.05;;;;;;;4.56;100.00;98716.78;10509011;28;20049;-77
2023/03/15 06:52:44;;;;;;;7.13;3.72;;;;;;;4.57;100.00;98729.25;10491274;28;20040;-77
2023/03/15 06:57:46;;;;;;;6.32;2.92;;;;;;;4.54;100.00;98736.09;10493429;28;20043;-75
2023/03/15 07:02:49;;;;;;;7.30;3.85;;;;;;;4.53;100.00;98729.84;10489438;28;20040;-76
2023/03/15 07:07:52;;;;;;;6.47;3.50;;;;;;;4.52;100.00;98739.09;10515770;28;20032;-77
2023/03/15 07:12:54;;;;;;;7.78;3.90;;;;;;;4.51;100.00;98751.06;10524084;28;20064;-77
2023/03/15 07:17:56;;;;;;;5.38;3.60;;;;;;;4.51;100.00;98763.78;10534838;28;20413;-78
2023/03/15 07:22:58;;;;;;;6.82;4.05;;;;;;;4.50;100.00;98773.84;10534770;28;20044;-79
2023/03/15 07:28:00;;;;;;;6.85;4.43;;;;;;;4.48;100.00;98778.75;10517142;28;20521;-78
2023/03/15 07:33:03;;;;;;;5.25;4.05;;;;;;;4.49;100.00;98785.00;10540285;28;20071;-77
2023/03/15 07:38:05;;;;;;;5.85;3.90;;;;;;;4.48;100.00;98786.91;10533503;28;20044;-78
2023/03/15 07:43:07;;;;;;;8.18;3.67;;;;;;;4.51;100.00;98804.53;10498764;28;20040;-79
2023/03/15 07:48:10;;;;;;;5.32;3.67;;;;;;;4.65;100.00;98785.66;10515540;28;20055;-81
2023/03/15 07:53:12;;;;;;;6.80;3.90;;;;;;;4.82;100.00;98775.97;10473445;28;20528;-80
2023/03/15 07:58:14;;;;;;;5.50;3.65;;;;;;;4.77;100.00;98780.66;10526679;28;20044;-77
2023/03/15 08:03:16;;;;;;;5.88;3.83;;;;;;;4.80;100.00;98778.16;10492301;28;20044;-79
2023/03/15 08:08:19;;;;;;;9.35;4.43;;;;;;;4.81;100.00;98779.78;10520622;28;20040;-80
2023/03/15 08:13:23;;;;;;;8.40;4.45;;;;;;;4.90;100.00;98790.84;10510420;28;20053;-78
2023/03/15 08:18:27;;;;;;;6.70;3.95;;;;;;;4.90;100.00;98796.28;10532159;28;20051;-77
2023/03/15 08:23:30;;;;;;;6.82;4.22;;;;;;;4.85;100.00;98794.41;10532432;28;20047;-78
2023/03/15 08:28:32;;;;;;;6.57;3.50;;;;;;;5.04;100.00;98810.00;10529734;28;20036;-78
2023/03/15 08:33:34;;;;;;;4.38;3.15;;;;;;;4.89;100.00;98859.88;10531603;28;20054;-77
2023/03/15 08:38:36;;;;;;;1.20;1.10;;;;;;;3.44;100.00;98900.22;10530858;28;20044;-77
2023/03/15 08:43:39;;;;;;;1.23;0.90;;;;;;;2.89;100.00;98937.22;10531223;28;20041;-79
2023/03/15 08:48:41;;;;;;;1.33;0.60;;;;;;;2.36;100.00;98958.34;10512788;28;20059;-78
2023/03/15 08:53:43;;;;;;;1.90;0.80;;;;;;;2.15;100.00;98969.41;10530228;28;20049;-77
2023/03/15 08:58:45;;;;;;;1.17;0.70;;;;;;;1.92;100.00;99005.84;10530047;28;20131;-77
2023/03/15 09:03:49;;;;;;;0.43;0.40;;;;;;;1.59;100.00;99017.84;10530268;28;20048;-79
2023/03/15 09:08:52;;;;;;;0.57;0.50;;;;;;;1.30;100.00;99028.22;10529202;28;20048;-77
2023/03/15 09:13:54;;;;;;;0.38;0.30;;;;;;;1.06;100.00;99052.09;10530431;28;20048;-76
2023/03/15 09:18:57;;;;;;;0.80;0.57;;;;;;;0.94;100.00;99064.94;10512524;28;20040;-78
2023/03/15 09:23:59;;;;;;;0.40;0.40;;;;;;;0.82;100.00;99092.91;10561649;28;20044;-78
2023/03/15 09:29:01;;;;;;;0.57;0.57;;;;;;;0.88;100.00;99091.09;10533522;28;20047;-79
2023/03/15 09:34:04;;;;;;;0.60;0.60;;;;;;;0.80;100.00;99096.94;10528736;28;20052;-78
2023/03/15 09:39:07;;;;;;;1.00;0.60;;;;;;;0.84;100.00;99106.97;10510288;28;20075;-77
2023/03/15 09:44:12;;;;;;;0.88;0.52;;;;;;;0.86;100.00;99118.31;10528360;28;20071;-77
2023/03/15 09:49:20;;;;;;;0.70;0.70;;;;;;;0.89;100.00;99117.03;10529429;28;20532;-79
2023/03/15 09:54:38;;;;;;;0.60;0.60;;;;;;;0.94;100.00;99151.34;10489020;28;20532;-77
2023/03/15 09:59:45;;;;;;;2.47;0.88;;;;;;;0.88;100.00;99167.53;10516662;28;20045;-75
2023/03/15 10:05:10;;;;;;;0.93;0.80;;;;;;;0.82;100.00;99181.19;10521304;28;20099;-78
2023/03/15 10:10:24;;;;;;;1.10;0.52;;;;;;;0.85;100.00;99205.81;10535533;28;20051;-79
2023/03/15 10:15:49;;;;;;;0.60;0.60;;;;;;;0.87;100.00;99209.09;10509727;28;20045;-77
2023/03/15 10:20:57;;;;;;;1.05;0.50;;;;;;;0.94;99.36;99210.78;10509907;28;20040;-76
2023/03/15 10:26:00;;;;;;;0.70;0.70;;;;;;;0.91;98.96;99231.00;10509309;28;20529;-77
2023/03/15 10:31:13;;;;;;;0.70;0.70;;;;;;;0.95;98.41;99217.81;10505230;28;20037;-78
2023/03/15 10:36:20;;;;;;;0.70;0.70;;;;;;;1.04;98.15;99240.56;10509724;28;20048;-76
2023/03/15 10:41:37;;;;;;;1.10;0.70;;;;;;;1.09;97.51;99246.06;10510029;28;20433;-76
2023/03/15 10:46:39;;;;;;;0.70;0.70;;;;;;;1.12;96.85;99259.06;10526647;28;20421;-78
2023/03/15 10:51:46;;;;;;;0.60;0.60;;;;;;;1.07;96.48;99281.44;10534339;28;20044;-78
2023/03/15 10:57:13;;;;;;;0.30;0.30;;;;;;;1.05;95.55;99288.97;10535361;28;20047;-76
2023/03/15 11:02:21;;;;;;;0.98;0.70;;;;;;;0.95;95.05;99315.84;10516906;28;20045;-77
2023/03/15 11:07:24;;;;;;;0.70;0.63;;;;;;;0.96;95.38;99322.06;10498228;28;20383;-78
2023/03/15 11:12:28;;;;;;;1.95;0.70;;;;;;;0.84;95.17;99341.06;10530609;28;20052;-78
2023/03/15 11:17:33;;;;;;;1.75;0.82;;;;;;;0.86;94.83;99364.06;10516327;28;20052;-79
2023/03/15 11:22:35;;;;;;;2.22;1.00;;;;;;;0.86;94.79;99364.06;10529825;28;20048;-78
2023/03/15 11:27:38;;;;;;;0.60;0.50;;;;;;;0.79;94.31;99395.00;10533474;28;20037;-78
2023/03/15 11:32:40;;;;;;;0.90;0.90;;;;;;;0.89;93.93;99406.78;10539920;28;20052;-78
2023/03/15 11:37:50;;;;;;;1.73;0.80;;;;;;;1.02;94.39;99400.19;10516870;28;20048;-78
2023/03/15 11:43:11;;;;;;;1.00;0.63;;;;;;;1.13;93.25;99401.16;10513867;28;20033;-78
2023/03/15 11:48:35;;;;;;;3.30;1.42;;;;;;;1.18;92.38;99418.25;10532811;28;20052;-79
2023/03/15 11:53:44;;;;;;;2.67;1.20;;;;;;;1.25;91.08;99428.91;10482823;28;20498;-79
2023/03/15 11:59:10;;;;;;;2.00;0.88;;;;;;;1.30;89.02;99437.06;10531117;28;20044;-79
2023/03/15 12:04:25;;;;;;;0.30;0.30;;;;;;;1.31;86.30;99454.91;10530591;28;20063;-78
2023/03/15 12:09:36;;;;;;;0.30;0.30;;;;;;;1.26;84.95;99462.97;10532235;28;20058;-78
2023/03/15 12:14:38;;;;;;;2.13;0.65;;;;;;;1.27;84.67;99470.00;10531219;28;20044;-78
2023/03/15 12:19:40;;;;;;;0.80;0.80;;;;;;;1.29;82.39;99472.44;10513584;28;20048;-76
2023/03/15 12:24:45;;;;;;;2.25;0.77;;;;;;;1.31;81.09;99506.25;10497782;28;20052;-77
2023/03/15 12:29:49;;;;;;;0.40;0.40;;;;;;;1.36;80.17;99510.91;10503148;28;20045;-76
2023/03/15 12:34:53;;;;;;;0.85;0.55;;;;;;;1.35;79.42;99510.09;10511931;28;20044;-78
2023/03/15 12:40:19;;;;;;;0.40;0.40;;;;;;;1.31;80.01;99514.38;10498166;28;20045;-78
2023/03/15 12:45:33;;;;;;;0.85;0.60;;;;;;;1.31;78.86;99546.78;10496375;28;20407;-78
2023/03/15 12:50:44;;;;;;;0.47;0.43;;;;;;;1.38;78.54;99569.06;10527178;28;20044;-78
2023/03/15 12:55:46;;;;;;;0.40;0.40;;;;;;;1.36;75.83;99603.63;10509512;28;20040;-78
2023/03/15 13:00:52;;;;;;;0.47;0.40;;;;;;;1.34;74.37;99605.75;10503092;28;20036;-78
2023/03/15 13:06:10;;;;;;;0.40;0.13;;;;;;;1.30;72.94;99615.44;10502154;28;20048;-79
2023/03/15 13:11:19;;;;;;;0.73;0.50;;;;;;;1.19;71.79;99644.16;10529457;28;20052;-80
2023/03/15 13:16:27;;;;;;;0.63;0.52;;;;;;;1.20;71.37;99661.19;10513519;28;20044;-79
2023/03/15 13:21:33;;;;;;;0.40;0.40;;;;;;;1.24;70.74;99669.66;10515217;28;20043;-79
2023/03/15 13:26:52;;;;;;;0.20;0.20;;;;;;;1.23;68.99;99682.34;10531701;28;20048;-79
2023/03/15 13:32:12;;;;;;;0.40;0.40;;;;;;;1.26;68.39;99694.53;10501479;28;20099;-79
2023/03/15 13:37:27;;;;;;;1.20;0.50;;;;;;;1.22;68.36;99690.69;10531371;28;20044;-78
2023/03/15 13:42:30;;;;;;;0.47;0.40;;;;;;;1.24;68.67;99708.28;10523344;28;20047;-80
2023/03/15 13:47:39;;;;;;;0.30;0.30;;;;;;;1.16;68.55;99720.28;10529670;28;20032;-79
2023/03/15 13:52:46;;;;;;;0.40;0.30;;;;;;;1.13;68.13;99744.28;10526284;28;20052;-78
2023/03/15 13:58:14;;;;;;;0.70;0.45;;;;;;;1.11;68.34;99736.44;10527615;28;20041;-78
2023/03/15 14:03:21;;;;;;;0.52;0.32;;;;;;;1.06;67.97;99752.53;10526982;28;20500;-77
2023/03/15 14:08:23;;;;;;;0.70;0.40;;;;;;;1.05;67.24;99763.59;10506127;28;20560;-78
2023/03/15 14:13:34;;;;;;;0.15;0.15;;;;;;;1.04;67.19;99778.97;10527447;28;20063;-78
2023/03/15 14:18:41;;;;;;;0.70;0.20;;;;;;;1.00;67.29;99774.28;10522823;28;20042;-77
2023/03/15 14:23:48;;;;;;;0.13;0.13;;;;;;;0.91;67.56;99781.94;10516751;28;20047;-77
2023/03/15 14:29:15;;;;;;;;;;;;;;;0.89;66.87;99793.00;10508704;28;20042;-76
2023/03/15 14:34:33;;;;;;;0.30;0.30;;;;;;;0.94;67.07;99786.06;10520981;28;19926;-78
2023/03/15 14:39:40;;;;;;;0.28;0.25;;;;;;;0.91;66.67;99795.44;10508582;28;20042;-78
2023/03/15 14:44:42;;;;;;;0.67;0.20;;;;;;;0.92;66.21;99805.19;10513415;28;20036;-78
2023/03/15 14:49:46;;;;;;;1.55;0.40;;;;;;;0.92;66.81;99812.47;10503057;28;20490;-79
2023/03/15 14:54:49;;;;;;;0.32;0.32;;;;;;;0.96;67.24;99813.63;10494887;28;20048;-78
2023/03/15 14:59:52;;;;;;;0.50;0.43;;;;;;;0.95;66.64;99818.22;10504498;28;20041;-79
2023/03/15 15:04:54;;;;;;;1.20;0.43;;;;;;;1.03;66.41;99834.03;10515947;28;20044;-79
2023/03/15 15:09:56;;;;;;;1.08;0.55;;;;;;;1.09;66.74;99846.63;10501718;28;20057;-78
2023/03/15 15:14:58;;;;;;;2.75;0.93;;;;;;;1.21;66.76;99857.38;10518859;28;20049;-79
2023/03/15 15:20:00;;;;;;;0.88;0.57;;;;;;;1.07;66.69;99864.94;10522076;28;20418;-79
2023/03/15 15:25:11;;;;;;;1.85;0.60;;;;;;;1.03;66.85;99860.25;10514667;28;20267;-79
2023/03/15 15:30:19;;;;;;;0.73;0.70;;;;;;;0.97;67.49;99870.13;10505750;28;20045;-79
2023/03/15 15:35:21;;;;;;;2.88;0.95;;;;;;;0.89;68.49;99870.50;10515581;28;20040;-82
2023/03/15 15:40:27;;;;;;;3.63;0.82;;;;;;;0.80;68.54;99886.22;10493137;28;20040;-79
2023/03/15 15:45:33;;;;;;;1.08;0.60;;;;;;;0.74;68.95;99886.34;10532030;28;20037;-76
2023/03/15 15:50:36;;;;;;;2.97;0.73;;;;;;;0.70;69.67;99894.13;10522196;28;20045;-79
2023/03/15 15:55:38;;;;;;;1.27;0.65;;;;;;;0.77;69.31;99916.41;10524840;28;20048;-77
2023/03/15 16:00:40;;;;;;;0.60;0.60;;;;;;;0.75;69.46;99932.03;10531119;28;20043;-80
2023/03/15 16:05:42;;;;;;;2.78;0.93;;;;;;;0.74;69.75;99943.88;10507543;28;20063;-80
2023/03/15 16:10:44;;;;;;;4.45;0.90;;;;;;;0.75;70.56;99955.50;10480522;28;20377;-78
2023/03/15 16:15:47;;;;;;;3.58;1.20;;;;;;;0.68;70.89;99952.06;10503328;28;20048;-80
2023/03/15 16:20:49;;;;;;;2.15;1.10;;;;;;;0.62;70.91;99959.25;10495963;28;20417;-80
2023/03/15 16:25:54;;;;;;;3.85;1.80;;;;;;;0.62;71.21;99967.34;10486892;28;20029;-80
2023/03/15 16:30:56;;;;;;;5.20;2.10;;;;;;;0.61;71.66;99973.78;10517332;28;20092;-81
2023/03/15 16:36:00;;;;;;;7.35;2.60;;;;;;;0.59;71.72;99992.09;10491716;28;20079;-81
2023/03/15 16:41:02;;;;;;;5.35;2.20;;;;;;;0.59;71.75;99997.50;10507082;28;20041;-78
2023/03/15 16:46:15;;;;;;;4.00;2.20;;;;;;;0.58;72.30;99995.88;10519541;28;20039;-79
2023/03/15 16:51:17;;;;;;;4.35;1.90;;;;;;;0.56;72.41;100004.19;10519151;28;20036;-77
2023/03/15 16:56:20;;;;;;;3.85;2.75;;;;;;;0.54;72.95;100010.88;10529401;28;20044;-79
2023/03/15 17:01:24;;;;;;;4.97;2.13;;;;;;;0.52;73.94;100019.22;10544954;28;20517;-79
2023/03/15 17:06:27;;;;;;;3.53;1.58;;;;;;;0.54;73.87;100027.06;10496343;28;20532;-78
2023/03/15 17:11:30;;;;;;;2.45;1.65;;;;;;;0.50;73.79;100031.28;10505435;28;20056;-79
2023/03/15 17:16:32;;;;;;;3.63;1.85;;;;;;;0.51;74.22;100039.13;10473420;28;20032;-78
2023/03/15 17:21:35;;;;;;;4.20;1.85;;;;;;;0.55;75.12;100045.75;10490573;28;20047;-77
2023/03/15 17:26:38;;;;;;;6.22;2.03;;;;;;;0.57;75.08;100053.59;10520563;28;20520;-79
2023/03/15 17:31:40;;;;;;;3.00;1.63;;;;;;;0.60;75.74;100063.94;10524234;28;20520;-78
2023/03/15 17:36:42;;;;;;;4.55;1.73;;;;;;;0.59;75.71;100057.72;10507614;28;20621;-78
2023/03/15 17:41:46;;;;;;;3.30;1.88;;;;;;;0.59;76.72;100048.81;10500377;28;20041;-78
2023/03/15 17:46:48;;;;;;;4.28;2.10;;;;;;;0.64;76.87;100054.31;10502707;28;20103;-79
2023/03/15 17:51:51;;;;;;;1.80;1.60;;;;;;;0.73;77.16;100050.25;10511050;28;20114;-78
2023/03/15 17:56:53;;;;;;;4.65;2.22;;;;;;;0.74;77.70;100056.47;10490013;28;20522;-77
2023/03/15 18:01:56;;;;;;;3.22;1.95;;;;;;;0.70;77.88;100064.22;10495442;28;20040;-80
2023/03/15 18:06:58;;;;;;;2.92;1.95;;;;;;;0.75;78.02;100071.63;10500416;28;20048;-80
2023/03/15 18:12:01;;;;;;;4.05;2.17;;;;;;;0.76;78.30;100071.38;10524783;28;20059;-79
2023/03/15 18:17:03;;;;;;;6.13;2.30;;;;;;;0.79;78.75;100065.53;10517996;28;20086;-78
2023/03/15 18:22:05;;;;;;;2.60;1.77;;;;;;;0.79;78.84;100075.50;10484934;28;20490;-78
2023/03/15 18:27:07;;;;;;;2.03;1.25;;;;;;;0.84;78.39;100078.31;10521173;28;20044;-79
2023/03/15 18:32:09;;;;;;;2.22;1.25;;;;;;;0.88;78.80;100074.94;10523247;28;20059;-80
2023/03/15 18:37:12;;;;;;;1.73;1.30;;;;;;;0.94;78.10;100070.50;10489287;28;20490;-78
2023/03/15 18:42:14;;;;;;;1.55;1.05;;;;;;;0.97;77.94;100074.59;10514503;28;20518;-77
2023/03/15 18:47:16;;;;;;;1.15;0.80;;;;;;;0.96;77.54;100078.34;10497329;28;20512;-76
2023/03/15 18:52:18;;;;;;;2.58;1.13;;;;;;;0.94;77.89;100075.06;10527059;28;20051;-77
2023/03/15 18:57:21;;;;;;;2.10;1.15;;;;;;;0.88;77.92;100079.53;10523962;28;20529;-77
2023/03/15 19:02:23;;;;;;;1.38;0.90;;;;;;;0.86;77.55;100068.94;10524695;28;20504;-78
2023/03/15 19:07:27;;;;;;;1.40;1.05;;;;;;;0.83;77.79;100079.38;10518067;28;20041;-79
2023/03/15 19:12:29;;;;;;;0.63;0.63;;;;;;;0.78;77.71;100074.69;10514321;28;20060;-76
2023/03/15 19:17:32;;;;;;;2.67;1.15;;;;;;;0.75;77.69;100088.66;10526619;28;20056;-80
2023/03/15 19:22:34;;;;;;;1.30;0.68;;;;;;;0.72;77.14;100081.00;10520321;28;20415;-80
2023/03/15 19:27:36;;;;;;;0.30;0.30;;;;;;;0.74;77.28;100092.41;10517860;28;20041;-79
2023/03/15 19:32:41;;;;;;;1.55;1.08;;;;;;;0.80;76.13;100099.56;10514873;28;20498;-80
2023/03/15 19:37:43;;;;;;;1.70;0.75;;;;;;;0.80;76.36;100102.28;10503018;28;20044;-77
2023/03/15 19:42:47;;;;;;;0.60;0.60;;;;;;;0.76;76.06;100101.09;10520541;28;20071;-79
2023/03/15 19:47:49;;;;;;;1.35;0.52;;;;;;;0.75;75.34;100110.25;10528461;28;20182;-79
2023/03/15 19:52:51;;;;;;;1.80;0.45;;;;;;;0.78;75.48;100106.25;10505728;28;20056;-77
2023/03/15 19:57:54;;;;;;;0.85;0.77;;;;;;;0.78;74.19;100115.19;10520530;28;20041;-80
2023/03/15 20:03:00;;;;;;;0.45;0.30;;;;;;;0.80;73.58;100113.06;10512536;28;20520;-79
2023/03/15 20:08:02;;;;;;;0.40;0.35;;;;;;;0.80;73.30;100121.19;10530374;28;20043;-78
2023/03/15 20:13:04;;;;;;;0.40;0.40;;;;;;;0.78;72.93;100130.56;10482493;28;20045;-77
2023/03/15 20:18:09;;;;;;;0.35;0.35;;;;;;;0.77;72.69;100135.16;10483595;28;20045;-78
2023/03/15 20:23:12;;;;;;;0.52;0.35;;;;;;;0.77;71.89;100140.53;10523608;28;20044;-77
2023/03/15 20:28:14;;;;;;;0.68;0.57;;;;;;;0.76;71.45;100144.31;10528041;28;20512;-79
2023/03/15 20:33:21;;;;;;;1.35;0.57;;;;;;;0.78;70.83;100142.19;10527618;28;20399;-78
2023/03/15 20:38:23;;;;;;;1.42;0.85;;;;;;;0.78;70.41;100153.00;10524786;28;20052;-79
2023/03/15 20:43:25;;;;;;;0.60;0.40;;;;;;;0.80;70.17;100156.28;10522031;28;20036;-77
2023/03/15 20:48:30;;;;;;;0.55;0.50;;;;;;;0.79;70.46;100164.63;10527023;28;20044;-78
2023/03/15 20:53:35;;;;;;;0.85;0.30;;;;;;;0.74;70.39;100176.13;10523712;28;20045;-78
2023/03/15 20:58:37;;;;;;;0.40;0.40;;;;;;;0.69;70.50;100173.25;10521638;28;20062;-78
2023/03/15 21:03:40;;;;;;;0.43;0.15;;;;;;;0.66;70.30;100181.81;10517743;28;20052;-77
2023/03/15 21:08:44;;;;;;;0.85;0.40;;;;;;;0.60;70.26;100180.84;10463006;28;1145809;-77
2023/03/15 21:13:47;;;;;;;0.28;0.28;;;;;;;0.57;69.95;100180.50;10502310;28;20541;-77
2023/03/15 21:18:53;;;;;;;0.32;0.30;;;;;;;0.55;70.00;100185.28;10514299;28;20430;-78
2023/03/15 21:23:56;;;;;;;1.35;0.60;;;;;;;0.53;70.49;100187.41;10522028;28;20067;-78
2023/03/15 21:28:58;;;;;;;0.40;0.32;;;;;;;0.48;70.23;100187.25;10515332;28;20040;-81
2023/03/15 21:34:00;;;;;;;1.85;0.40;;;;;;;0.44;69.96;100191.44;10507324;28;20055;-77
2023/03/15 21:39:05;;;;;;;0.32;0.30;;;;;;;0.45;69.49;100196.63;10504295;28;20044;-78
2023/03/15 21:44:07;;;;;;;1.67;0.52;;;;;;;0.44;70.24;100194.97;10521454;28;20036;-78
2023/03/15 21:49:10;;;;;;;0.82;0.60;;;;;;;0.48;69.38;100198.84;10511863;28;20429;-78
2023/03/15 21:54:13;;;;;;;0.95;0.50;;;;;;;0.38;69.07;100212.06;10521022;28;20048;-79
2023/03/15 21:59:16;;;;;;;0.47;0.30;;;;;;;0.32;69.51;100218.34;10492719;28;20037;-77
2023/03/15 22:04:18;;;;;;;1.33;0.50;;;;;;;0.25;68.99;100229.22;10522904;28;20044;-80
2023/03/15 22:09:22;;;;;;;2.28;0.57;;;;;;;0.22;69.28;100231.56;10523348;28;20044;-79
2023/03/15 22:14:24;;;;;;;0.52;0.52;;;;;;;0.18;69.27;100238.44;10495466;28;20036;-77
2023/03/15 22:19:26;;;;;;;2.15;0.52;;;;;;;0.12;69.36;100245.53;10522077;28;20047;-77
2023/03/15 22:24:32;;;;;;;2.22;0.38;;;;;;;0.07;69.83;100248.09;10520508;28;20040;-78
2023/03/15 22:29:35;;;;;;;2.10;0.77;;;;;;;0.02;70.15;100260.59;10496882;28;20040;-78
2023/03/15 22:34:37;;;;;;;0.55;0.40;;;;;;;-0.01;70.37;100269.94;10510349;28;20044;-77
2023/03/15 22:39:40;;;;;;;1.67;0.50;;;;;;;-0.05;70.95;100274.13;10508785;28;20051;-76
2023/03/15 22:44:43;;;;;;;3.30;0.57;;;;;;;-0.09;71.39;100281.00;10507821;28;20044;-77
2023/03/15 22:49:47;;;;;;;2.45;1.00;;;;;;;-0.13;71.52;100288.72;10518429;28;20052;-78
2023/03/15 22:54:49;;;;;;;0.82;0.70;;;;;;;-0.18;72.08;100293.09;10521496;28;20047;-76
2023/03/15 22:59:51;;;;;;;0.60;0.50;;;;;;;-0.25;72.29;100303.13;10500196;28;20054;-76
2023/03/15 23:04:54;;;;;;;2.88;0.95;;;;;;;-0.31;72.84;100300.25;10504344;28;20041;-78
2023/03/15 23:09:57;;;;;;;3.40;1.05;;;;;;;-0.35;73.08;100301.75;10510942;28;20049;-78
2023/03/15 23:14:59;;;;;;;3.40;0.95;;;;;;;-0.36;73.40;100307.34;10458292;28;20048;-76
2023/03/15 23:20:03;;;;;;;3.60;0.77;;;;;;;-0.40;73.60;100315.03;10473175;28;20051;-77
2023/03/15 23:25:07;;;;;;;2.38;1.23;;;;;;;-0.47;74.15;100321.53;10478217;28;20047;-78
2023/03/15 23:30:10;;;;;;;1.75;0.93;;;;;;;-0.52;74.60;100330.28;10462564;28;20060;-78
2023/03/15 23:35:13;;;;;;;3.38;0.82;;;;;;;-0.53;74.69;100328.59;10482690;28;20046;-77
2023/03/15 23:40:16;;;;;;;1.73;1.20;;;;;;;-0.57;74.95;100332.75;10446559;28;20171;-76
2023/03/15 23:45:18;;;;;;;3.25;1.00;;;;;;;-0.63;75.26;100330.94;10461830;28;20037;-77